createdAt,value
2018-04-29T00:00:05.480Z,13.80
2018-04-29T00:02:32.915Z,13.70
2018-04-29T00:05:01.134Z,13.70
2018-04-29T00:07:28.593Z,13.70
2018-04-29T00:09:56.032Z,13.70
2018-04-29T00:12:23.484Z,13.70
2018-04-29T00:14:50.936Z,13.70
2018-04-29T00:17:18.360Z,13.60
2018-04-29T00:19:45.792Z,13.60
2018-04-29T00:22:14.029Z,13.50
2018-04-29T00:24:41.486Z,13.50
2018-04-29T00:27:08.908Z,13.50
2018-04-29T00:29:36.404Z,13.40
2018-04-29T00:32:03.951Z,13.40
2018-04-29T00:34:31.420Z,13.30
2018-04-29T00:36:58.856Z,13.20
2018-04-29T00:39:26.288Z,13.20
2018-04-29T00:41:53.781Z,13.20
2018-04-29T00:44:21.203Z,13.20
2018-04-29T00:46:48.644Z,13.10
2018-04-29T00:49:16.841Z,13.00
2018-04-29T00:51:56.396Z,13.00
2018-04-29T00:54:23.824Z,13.00
2018-04-29T00:56:51.317Z,12.90
2018-04-29T00:59:18.787Z,12.80
2018-04-29T01:01:46.327Z,12.70
2018-04-29T01:04:13.870Z,12.60
2018-04-29T01:06:41.284Z,12.50
2018-04-29T01:09:09.508Z,12.10
2018-04-29T01:11:36.949Z,12.10
2018-04-29T01:14:04.382Z,12.00
2018-04-29T01:16:32.600Z,11.70
2018-04-29T01:19:00.068Z,11.70
2018-04-29T01:21:27.515Z,11.50
2018-04-29T01:23:54.951Z,11.40
2018-04-29T01:26:22.425Z,11.30
2018-04-29T01:28:49.864Z,11.20
2018-04-29T01:31:17.308Z,11.20
2018-04-29T01:33:44.732Z,11.10
2018-04-29T01:36:12.959Z,10.90
2018-04-29T01:38:40.421Z,10.80
2018-04-29T01:41:08.397Z,10.80
2018-04-29T01:43:35.848Z,10.70
2018-04-29T01:46:03.284Z,10.80
2018-04-29T01:48:30.753Z,10.90
2018-04-29T01:50:58.192Z,10.90
2018-04-29T01:53:25.630Z,11.00
2018-04-29T01:55:53.076Z,11.00
2018-04-29T01:58:21.288Z,11.00
2018-04-29T02:00:48.762Z,11.00
2018-04-29T02:03:16.208Z,11.00
2018-04-29T02:05:43.644Z,10.90
2018-04-29T02:08:11.080Z,10.80
2018-04-29T02:10:38.508Z,10.70
2018-04-29T02:13:05.952Z,10.50
2018-04-29T02:15:33.980Z,10.40
2018-04-29T02:18:01.408Z,10.20
2018-04-29T02:20:29.616Z,10.00
2018-04-29T02:22:57.056Z,10.00
2018-04-29T02:25:24.532Z,10.00
2018-04-29T02:27:51.997Z,9.90
2018-04-29T02:30:19.552Z,9.90
2018-04-29T02:32:47.005Z,10.00
2018-04-29T02:35:14.468Z,10.00
2018-04-29T02:37:41.905Z,10.00
2018-04-29T02:40:09.376Z,10.00
2018-04-29T02:42:36.820Z,9.90
2018-04-29T02:45:04.300Z,9.80
2018-04-29T02:47:31.748Z,9.70
2018-04-29T02:49:59.200Z,9.50
2018-04-29T02:52:26.656Z,9.40
2018-04-29T02:54:54.080Z,9.30
2018-04-29T02:57:21.520Z,9.20
2018-04-29T02:59:49.740Z,9.00
2018-04-29T03:02:17.190Z,9.00
2018-04-29T03:04:44.668Z,8.90
2018-04-29T03:07:12.090Z,8.90
2018-04-29T03:09:39.650Z,8.80
2018-04-29T03:12:07.117Z,8.70
2018-04-29T03:14:34.550Z,8.70
2018-04-29T03:17:01.988Z,8.60
2018-04-29T03:19:30.178Z,8.50
2018-04-29T03:21:57.608Z,8.50
2018-04-29T03:24:25.845Z,8.40
2018-04-29T03:26:53.295Z,8.40
2018-04-29T03:29:20.724Z,8.40
2018-04-29T03:31:48.148Z,8.30
2018-04-29T03:34:16.341Z,8.30
2018-04-29T03:36:43.832Z,8.20
2018-04-29T03:39:11.256Z,8.20
2018-04-29T03:41:38.746Z,8.20
2018-04-29T03:44:06.184Z,8.10
2018-04-29T03:46:33.652Z,8.10
2018-04-29T03:49:01.076Z,8.10
2018-04-29T03:51:28.557Z,8.10
2018-04-29T03:53:56.002Z,8.00
2018-04-29T03:56:23.424Z,8.00
2018-04-29T03:59:03.525Z,8.00
2018-04-29T04:04:36.535Z,8.00
2018-04-29T04:07:03.970Z,7.90
2018-04-29T04:09:31.388Z,7.90
2018-04-29T04:11:59.585Z,7.90
2018-04-29T04:14:27.008Z,7.90
2018-04-29T04:16:54.437Z,8.00
2018-04-29T04:19:21.884Z,8.00
2018-04-29T04:21:49.341Z,8.10
2018-04-29T04:24:16.792Z,8.20
2018-04-29T04:26:44.217Z,8.20
2018-04-29T04:29:11.650Z,8.40
2018-04-29T04:31:39.861Z,8.60
2018-04-29T04:34:07.360Z,8.60
2018-04-29T04:36:35.481Z,8.80
2018-04-29T04:39:02.946Z,8.80
2018-04-29T04:41:30.347Z,9.00
2018-04-29T04:43:57.828Z,9.20
2018-04-29T04:46:25.223Z,9.30
2018-04-29T04:48:52.652Z,9.60
2018-04-29T04:51:20.128Z,10.10
2018-04-29T04:53:47.564Z,11.00
2018-04-29T04:56:14.994Z,12.10
2018-04-29T04:58:43.188Z,12.90
2018-04-29T05:01:10.672Z,12.90
2018-04-29T05:03:38.122Z,12.70
2018-04-29T05:06:05.560Z,12.50
2018-04-29T05:08:33.011Z,12.60
2018-04-29T05:11:00.436Z,12.50
2018-04-29T05:13:27.868Z,12.70
2018-04-29T05:15:55.296Z,12.50
2018-04-29T05:18:22.733Z,12.40
2018-04-29T05:20:50.220Z,12.20
2018-04-29T05:23:17.661Z,12.20
2018-04-29T05:25:45.153Z,12.10
2018-04-29T05:28:12.574Z,12.00
2018-04-29T05:30:40.001Z,12.00
2018-04-29T05:33:08.219Z,13.10
2018-04-29T05:35:35.673Z,13.00
2018-04-29T05:38:03.116Z,14.50
2018-04-29T05:40:30.537Z,16.00
2018-04-29T05:42:58.758Z,18.30
2018-04-29T05:45:26.186Z,18.20
2018-04-29T05:47:53.674Z,18.50
2018-04-29T05:50:21.122Z,19.00
2018-04-29T05:52:49.180Z,19.30
2018-04-29T05:55:16.604Z,19.50
2018-04-29T05:57:44.836Z,19.70
2018-04-29T06:00:12.262Z,19.70
2018-04-29T06:02:39.680Z,18.90
2018-04-29T06:05:07.882Z,17.70
2018-04-29T06:07:35.308Z,17.60
2018-04-29T06:10:02.745Z,18.00
2018-04-29T06:12:30.945Z,18.90
2018-04-29T06:14:58.452Z,18.90
2018-04-29T06:17:25.875Z,18.90
2018-04-29T06:19:53.308Z,18.60
2018-04-29T06:22:21.500Z,17.70
2018-04-29T06:24:48.993Z,17.70
2018-04-29T06:27:16.415Z,17.30
2018-04-29T06:29:43.844Z,16.90
2018-04-29T06:32:12.180Z,17.00
2018-04-29T06:34:39.628Z,17.00
2018-04-29T06:37:07.080Z,17.40
2018-04-29T06:39:34.539Z,17.70
2018-04-29T06:42:01.996Z,17.50
2018-04-29T06:44:29.457Z,17.40
2018-04-29T06:46:56.967Z,17.50
2018-04-29T06:49:24.363Z,17.60
2018-04-29T06:51:51.820Z,17.40
2018-04-29T06:54:19.275Z,17.30
2018-04-29T06:56:46.710Z,17.30
2018-04-29T06:59:14.188Z,17.20
2018-04-29T07:01:41.629Z,17.20
2018-04-29T07:04:09.148Z,17.00
2018-04-29T07:06:36.528Z,17.10
2018-04-29T07:09:04.017Z,17.20
2018-04-29T07:11:31.476Z,17.20
2018-04-29T07:13:58.929Z,17.00
2018-04-29T07:16:26.396Z,16.80
2018-04-29T07:18:53.828Z,16.50
2018-04-29T07:21:21.297Z,16.50
2018-04-29T07:23:48.732Z,16.60
2018-04-29T07:26:16.160Z,17.00
2018-04-29T07:28:44.393Z,18.10
2018-04-29T07:31:11.818Z,18.00
2018-04-29T07:33:39.293Z,18.50
2018-04-29T07:36:06.745Z,18.90
2018-04-29T07:38:34.312Z,19.20
2018-04-29T07:41:01.760Z,19.00
2018-04-29T07:43:29.322Z,18.80
2018-04-29T07:45:56.782Z,18.50
2018-04-29T07:48:24.232Z,18.40
2018-04-29T07:50:51.679Z,18.20
2018-04-29T07:53:19.788Z,18.20
2018-04-29T07:55:47.214Z,18.00
2018-04-29T07:58:14.675Z,17.70
2018-04-29T08:00:42.144Z,17.40
2018-04-29T08:03:09.568Z,17.30
2018-04-29T08:05:37.041Z,17.30
2018-04-29T08:08:04.461Z,17.30
2018-04-29T08:10:31.892Z,17.20
2018-04-29T08:13:00.122Z,17.40
2018-04-29T08:15:27.629Z,17.40
2018-04-29T08:17:55.048Z,17.50
2018-04-29T08:20:22.475Z,17.70
2018-04-29T08:22:49.900Z,17.70
2018-04-29T08:25:18.121Z,17.40
2018-04-29T08:27:45.544Z,17.40
2018-04-29T08:30:12.968Z,17.30
2018-04-29T08:32:40.692Z,17.10
2018-04-29T08:35:08.149Z,17.00
2018-04-29T08:37:35.608Z,16.90
2018-04-29T08:40:03.037Z,16.90
2018-04-29T08:42:30.980Z,16.90
2018-04-29T08:44:59.197Z,17.20
2018-04-29T08:47:26.695Z,17.20
2018-04-29T08:49:54.125Z,17.30
2018-04-29T08:52:21.653Z,17.20
2018-04-29T08:54:49.169Z,17.00
2018-04-29T08:57:17.291Z,16.90
2018-04-29T08:59:44.753Z,16.90
2018-04-29T09:02:12.193Z,17.60
2018-04-29T09:04:39.648Z,18.70
2018-04-29T09:07:07.080Z,19.30
2018-04-29T09:09:35.295Z,19.20
2018-04-29T09:12:02.752Z,19.20
2018-04-29T09:14:30.210Z,19.00
2018-04-29T09:16:57.752Z,18.90
2018-04-29T09:19:25.103Z,19.00
2018-04-29T09:21:52.568Z,18.80
2018-04-29T09:24:20.029Z,18.40
2018-04-29T09:26:47.485Z,18.30
2018-04-29T09:29:14.935Z,18.30
2018-04-29T09:31:42.376Z,18.20
2018-04-29T09:34:09.852Z,18.20
2018-04-29T09:36:37.293Z,18.20
2018-04-29T09:39:05.476Z,18.20
2018-04-29T09:41:32.908Z,18.30
2018-04-29T09:44:00.336Z,18.50
2018-04-29T09:46:28.565Z,18.80
2018-04-29T09:48:56.005Z,18.80
2018-04-29T09:51:23.432Z,18.60
2018-04-29T09:53:51.636Z,18.00
2018-04-29T09:56:19.049Z,17.90
2018-04-29T09:58:47.288Z,17.30
2018-04-29T10:01:17.835Z,17.30
2018-04-29T10:03:48.005Z,17.00
2018-04-29T10:06:15.424Z,16.80
2018-04-29T10:08:43.620Z,16.90
2018-04-29T10:11:11.108Z,16.90
2018-04-29T10:13:38.532Z,17.30
2018-04-29T10:16:06.065Z,17.80
2018-04-29T10:18:34.292Z,18.70
2018-04-29T10:21:01.723Z,18.70
2018-04-29T10:23:29.144Z,19.20
2018-04-29T10:25:57.376Z,19.60
2018-04-29T10:28:24.836Z,19.50
2018-04-29T10:30:52.293Z,19.40
2018-04-29T10:33:19.747Z,19.60
2018-04-29T10:35:47.176Z,19.80
2018-04-29T10:38:14.615Z,20.10
2018-04-29T10:40:42.832Z,20.70
2018-04-29T10:43:10.264Z,20.70
2018-04-29T10:45:37.688Z,20.80
2018-04-29T10:48:05.900Z,21.10
2018-04-29T10:50:33.380Z,21.10
2018-04-29T10:53:00.835Z,20.80
2018-04-29T10:55:28.279Z,20.80
2018-04-29T10:57:55.712Z,20.70
2018-04-29T11:00:23.201Z,20.80
2018-04-29T11:02:50.661Z,21.00
2018-04-29T11:05:18.196Z,21.30
2018-04-29T11:07:45.664Z,21.60
2018-04-29T11:10:13.090Z,22.10
2018-04-29T11:12:40.507Z,22.30
2018-04-29T11:15:09.464Z,22.20
2018-04-29T11:17:36.929Z,22.20
2018-04-29T11:20:04.380Z,21.80
2018-04-29T11:22:31.844Z,21.40
2018-04-29T11:24:59.251Z,21.00
2018-04-29T11:27:27.449Z,21.50
2018-04-29T11:29:54.911Z,21.50
2018-04-29T11:32:22.744Z,21.80
2018-04-29T11:34:50.929Z,22.80
2018-04-29T11:37:18.364Z,22.80
2018-04-29T11:39:46.589Z,22.50
2018-04-29T11:42:14.008Z,22.50
2018-04-29T11:44:41.497Z,22.00
2018-04-29T11:47:08.956Z,21.80
2018-04-29T11:49:36.412Z,21.80
2018-04-29T11:52:03.839Z,22.20
2018-04-29T11:54:31.265Z,22.30
2018-04-29T11:56:59.501Z,22.70
2018-04-29T11:59:26.944Z,22.70
2018-04-29T12:01:54.451Z,22.60
2018-04-29T12:04:21.832Z,22.70
2018-04-29T12:06:49.260Z,22.80
2018-04-29T12:09:17.452Z,23.40
2018-04-29T12:11:44.946Z,23.40
2018-04-29T12:14:12.368Z,23.60
2018-04-29T12:16:39.856Z,23.60
2018-04-29T12:19:07.271Z,23.30
2018-04-29T12:21:35.471Z,23.00
2018-04-29T12:24:02.892Z,23.00
2018-04-29T12:26:31.083Z,22.90
2018-04-29T12:28:58.572Z,23.00
2018-04-29T12:31:26.934Z,23.10
2018-04-29T12:33:54.352Z,23.00
2018-04-29T12:36:22.540Z,22.90
2018-04-29T12:38:49.969Z,22.90
2018-04-29T12:41:17.484Z,22.80
2018-04-29T12:43:44.915Z,23.00
2018-04-29T12:46:12.336Z,23.50
2018-04-29T12:48:39.873Z,23.90
2018-04-29T12:51:07.304Z,23.80
2018-04-29T12:53:34.735Z,23.40
2018-04-29T12:56:02.156Z,23.70
2018-04-29T12:58:29.581Z,23.70
2018-04-29T13:00:57.063Z,23.70
2018-04-29T13:03:25.254Z,23.80
2018-04-29T13:05:53.472Z,23.80
2018-04-29T13:08:20.900Z,23.80
2018-04-29T13:10:48.336Z,24.00
2018-04-29T13:13:17.400Z,23.90
2018-04-29T13:15:44.832Z,23.80
2018-04-29T13:18:12.352Z,23.50
2018-04-29T13:20:40.567Z,22.90
2018-04-29T13:23:08.017Z,22.90
2018-04-29T13:25:35.477Z,22.70
2018-04-29T13:28:02.921Z,22.90
2018-04-29T13:30:30.394Z,23.00
2018-04-29T13:32:57.812Z,23.20
2018-04-29T13:35:25.240Z,23.20
2018-04-29T13:37:52.759Z,23.10
2018-04-29T13:40:20.180Z,22.80
2018-04-29T13:42:48.081Z,22.80
2018-04-29T13:45:15.483Z,22.80
2018-04-29T13:47:43.672Z,23.20
2018-04-29T13:50:11.096Z,23.20
2018-04-29T13:52:38.617Z,23.00
2018-04-29T13:55:06.052Z,23.10
2018-04-29T13:57:33.464Z,23.00
2018-04-29T14:00:00.981Z,23.10
2018-04-29T14:02:28.420Z,23.30
2018-04-29T14:04:55.904Z,23.30
2018-04-29T14:07:23.456Z,23.20
2018-04-29T14:09:50.872Z,23.00
2018-04-29T14:12:19.079Z,23.10
2018-04-29T14:14:47.049Z,23.10
2018-04-29T14:17:14.512Z,23.10
2018-04-29T14:19:41.933Z,22.90
2018-04-29T14:22:09.490Z,23.00
2018-04-29T14:24:36.854Z,23.20
2018-04-29T14:27:04.326Z,23.20
2018-04-29T14:29:31.754Z,23.30
2018-04-29T14:31:59.241Z,23.40
2018-04-29T14:34:26.668Z,23.60
2018-04-29T14:36:54.089Z,23.70
2018-04-29T14:39:22.327Z,23.40
2018-04-29T14:41:49.789Z,23.30
2018-04-29T14:44:17.216Z,23.20
2018-04-29T14:46:44.635Z,23.10
2018-04-29T14:49:12.155Z,22.60
2018-04-29T14:51:39.564Z,22.70
2018-04-29T14:54:07.760Z,23.10
2018-04-29T14:56:35.252Z,23.20
2018-04-29T14:59:02.676Z,23.30
2018-04-29T15:01:30.223Z,23.60
2018-04-29T15:03:57.572Z,23.70
2018-04-29T15:06:25.061Z,23.70
2018-04-29T15:08:52.484Z,23.50
2018-04-29T15:11:19.933Z,23.40
2018-04-29T15:13:47.458Z,23.30
2018-04-29T15:16:14.910Z,23.40
2018-04-29T15:18:54.127Z,23.20
2018-04-29T15:21:21.555Z,23.00
2018-04-29T15:23:48.977Z,23.00
2018-04-29T15:26:17.172Z,23.30
2018-04-29T15:28:44.644Z,23.30
2018-04-29T15:31:12.067Z,23.30
2018-04-29T15:33:40.269Z,23.10
2018-04-29T15:36:07.700Z,23.00
2018-04-29T15:38:35.122Z,22.90
2018-04-29T15:41:03.364Z,22.70
2018-04-29T15:43:30.796Z,22.70
2018-04-29T15:45:58.277Z,22.50
2018-04-29T15:48:25.734Z,22.40
2018-04-29T15:50:53.156Z,22.20
2018-04-29T15:53:20.649Z,22.20
2018-04-29T15:55:48.105Z,22.30
2018-04-29T15:58:15.544Z,22.40
2018-04-29T16:00:43.013Z,22.40
2018-04-29T16:03:10.437Z,22.30
2018-04-29T16:05:37.877Z,22.30
2018-04-29T16:08:06.100Z,21.90
2018-04-29T16:10:33.540Z,21.90
2018-04-29T16:13:01.044Z,21.80
2018-04-29T16:15:29.976Z,21.60
2018-04-29T16:17:57.402Z,21.60
2018-04-29T16:20:24.922Z,21.60
2018-04-29T16:22:52.353Z,21.60
2018-04-29T16:25:19.780Z,21.50
2018-04-29T16:27:48.043Z,21.50
2018-04-29T16:30:16.239Z,21.50
2018-04-29T16:32:43.740Z,21.50
2018-04-29T16:35:11.164Z,21.50
2018-04-29T16:37:38.588Z,21.30
2018-04-29T16:40:06.816Z,21.10
2018-04-29T16:42:34.272Z,21.10
2018-04-29T16:45:01.696Z,20.90
2018-04-29T16:47:29.183Z,20.80
2018-04-29T16:49:56.655Z,20.70
2018-04-29T16:52:24.085Z,20.70
2018-04-29T16:54:51.524Z,20.60
2018-04-29T16:57:18.949Z,20.60
2018-04-29T16:59:47.171Z,20.60
2018-04-29T17:02:14.601Z,20.60
2018-04-29T17:04:42.089Z,20.60
2018-04-29T17:07:09.508Z,20.50
2018-04-29T17:09:36.939Z,20.50
2018-04-29T17:12:04.461Z,20.50
2018-04-29T17:14:31.937Z,20.50
2018-04-29T17:16:59.487Z,20.50
2018-04-29T17:19:27.600Z,20.40
2018-04-29T17:21:55.824Z,20.40
2018-04-29T17:24:23.272Z,20.40
2018-04-29T17:26:50.730Z,20.40
2018-04-29T17:29:18.226Z,20.40
2018-04-29T17:31:45.600Z,20.40
2018-04-29T17:34:13.029Z,20.30
2018-04-29T17:36:42.073Z,20.20
2018-04-29T17:39:09.493Z,20.20
2018-04-29T17:41:37.684Z,20.20
2018-04-29T17:44:05.166Z,20.20
2018-04-29T17:46:33.308Z,20.10
2018-04-29T17:49:00.796Z,20.10
2018-04-29T17:51:28.224Z,20.00
2018-04-29T17:53:56.544Z,20.00
2018-04-29T17:56:23.972Z,20.00
2018-04-29T17:58:51.401Z,20.00
2018-04-29T18:01:19.650Z,20.00
2018-04-29T18:03:47.044Z,20.00
2018-04-29T18:06:14.532Z,20.10
2018-04-29T18:08:41.948Z,20.10
2018-04-29T18:11:09.415Z,20.10
2018-04-29T18:13:36.843Z,20.00
2018-04-29T18:16:05.036Z,19.80
2018-04-29T18:18:32.522Z,19.80
2018-04-29T18:21:00.599Z,19.60
2018-04-29T18:23:28.052Z,19.50
2018-04-29T18:25:55.476Z,19.50
2018-04-29T18:28:22.972Z,19.30
2018-04-29T18:30:50.408Z,19.20
2018-04-29T18:33:17.832Z,19.10
2018-04-29T18:35:45.260Z,19.00
2018-04-29T18:38:13.448Z,18.80
2018-04-29T18:40:41.679Z,18.70
2018-04-29T18:43:09.118Z,18.70
2018-04-29T18:45:36.588Z,18.60
2018-04-29T18:48:04.013Z,18.50
2018-04-29T18:50:31.632Z,18.50
2018-04-29T18:52:58.926Z,18.40
2018-04-29T18:55:26.358Z,18.30
2018-04-29T18:57:54.562Z,18.10
2018-04-29T19:00:22.039Z,18.10
2018-04-29T19:02:50.180Z,18.00
2018-04-29T19:05:17.660Z,17.90
2018-04-29T19:07:45.129Z,17.90
2018-04-29T19:10:12.563Z,17.80
2018-04-29T19:12:39.995Z,17.70
2018-04-29T19:15:07.433Z,17.70
2018-04-29T19:17:35.639Z,17.70
2018-04-29T19:20:03.113Z,17.70
2018-04-29T19:22:30.570Z,17.60
2018-04-29T19:24:57.996Z,17.60
2018-04-29T19:27:25.484Z,17.50
2018-04-29T19:29:52.943Z,17.40
2018-04-29T19:32:20.384Z,17.40
2018-04-29T19:34:47.848Z,17.40
2018-04-29T19:37:15.400Z,17.30
2018-04-29T19:39:42.863Z,17.30
2018-04-29T19:42:10.327Z,17.20
2018-04-29T19:44:37.774Z,17.20
2018-04-29T19:47:05.235Z,17.20
2018-04-29T19:49:32.660Z,17.20
2018-04-29T19:52:00.101Z,17.10
2018-04-29T19:54:28.312Z,17.00
2018-04-29T19:56:55.744Z,17.00
2018-04-29T19:59:23.172Z,17.00
2018-04-29T20:01:51.395Z,16.90
2018-04-29T20:04:18.820Z,16.90
2018-04-29T20:06:46.251Z,16.90
2018-04-29T20:09:14.528Z,16.80
2018-04-29T20:11:42.765Z,16.80
2018-04-29T20:14:10.220Z,16.80
2018-04-29T20:16:37.670Z,16.80
2018-04-29T20:19:05.100Z,16.70
2018-04-29T20:21:32.560Z,16.70
2018-04-29T20:24:00.036Z,16.70
2018-04-29T20:26:27.504Z,16.70
2018-04-29T20:28:55.055Z,16.70
2018-04-29T20:31:22.509Z,16.60
2018-04-29T20:33:49.967Z,16.60
2018-04-29T20:36:17.431Z,16.60
2018-04-29T20:38:44.848Z,16.50
2018-04-29T20:41:12.328Z,16.50
2018-04-29T20:43:39.765Z,16.50
2018-04-29T20:46:07.249Z,16.40
2018-04-29T20:48:34.777Z,16.30
2018-04-29T20:51:02.120Z,16.20
2018-04-29T20:53:29.628Z,16.20
2018-04-29T20:55:57.055Z,16.10
2018-04-29T20:58:24.480Z,16.10
2018-04-29T21:00:52.672Z,16.00
2018-04-29T21:03:20.156Z,16.00
2018-04-29T21:05:49.166Z,16.00
2018-04-29T21:08:16.604Z,16.00
2018-04-29T21:10:44.036Z,16.00
2018-04-29T21:13:11.509Z,16.00
2018-04-29T21:15:38.973Z,15.90
2018-04-29T21:18:06.424Z,15.90
2018-04-29T21:20:33.891Z,15.90
2018-04-29T21:23:01.344Z,16.00
2018-04-29T21:25:28.781Z,16.00
2018-04-29T21:27:56.245Z,16.10
2018-04-29T21:30:23.710Z,16.10
2018-04-29T21:32:51.159Z,16.20
2018-04-29T21:35:18.596Z,16.20
2018-04-29T21:37:46.070Z,16.20
2018-04-29T21:40:13.488Z,16.20
2018-04-29T21:42:40.985Z,16.20
2018-04-29T21:45:08.443Z,16.20
2018-04-29T21:47:35.901Z,16.20
2018-04-29T21:50:03.353Z,16.30
2018-04-29T21:52:30.817Z,16.30
2018-04-29T21:54:58.260Z,16.30
2018-04-29T21:57:25.691Z,16.20
2018-04-29T21:59:53.123Z,16.20
2018-04-29T22:02:21.352Z,16.10
2018-04-29T22:04:48.786Z,16.10
2018-04-29T22:07:16.264Z,16.10
2018-04-29T22:09:43.743Z,16.10
2018-04-29T22:12:11.172Z,16.00
2018-04-29T22:14:38.629Z,16.00
2018-04-29T22:17:06.084Z,16.00
2018-04-29T22:19:33.545Z,15.90
2018-04-29T22:22:00.968Z,15.90
2018-04-29T22:24:28.413Z,15.90
2018-04-29T22:26:55.839Z,15.90
2018-04-29T22:29:23.305Z,15.80
2018-04-29T22:31:51.495Z,15.80
2018-04-29T22:34:18.930Z,15.80
2018-04-29T22:36:47.171Z,15.80
2018-04-29T22:39:14.616Z,15.80
2018-04-29T22:41:42.145Z,15.70
2018-04-29T22:44:09.532Z,15.70
2018-04-29T22:46:36.989Z,15.70
2018-04-29T22:49:04.421Z,15.60
2018-04-29T22:51:31.897Z,15.60
2018-04-29T22:53:59.325Z,15.60
2018-04-29T22:56:26.756Z,15.50
2018-04-29T22:58:54.952Z,15.50
2018-04-29T23:01:22.432Z,15.50
2018-04-29T23:03:49.908Z,15.50
2018-04-29T23:06:17.319Z,15.60
2018-04-29T23:08:44.813Z,15.60
2018-04-29T23:11:12.251Z,15.60
2018-04-29T23:13:39.715Z,15.60
2018-04-29T23:16:07.176Z,15.60
2018-04-29T23:18:34.630Z,15.60
2018-04-29T23:21:02.067Z,15.60
2018-04-29T23:23:29.540Z,15.60
2018-04-29T23:25:57.072Z,15.60
2018-04-29T23:28:24.445Z,15.50
2018-04-29T23:30:51.880Z,15.40
2018-04-29T23:33:19.308Z,15.40
2018-04-29T23:35:47.527Z,15.30
2018-04-29T23:38:14.987Z,15.30
2018-04-29T23:40:42.504Z,15.30
2018-04-29T23:43:10.729Z,15.20
2018-04-29T23:45:38.162Z,15.20
2018-04-29T23:48:05.734Z,15.20
2018-04-29T23:50:33.160Z,15.30
2018-04-29T23:53:00.652Z,15.20
2018-04-29T23:55:28.090Z,15.20
2018-04-29T23:57:55.524Z,15.20
